Wild Rose, Wisconsin
Current Conditions -  °F | °C
As of 7:56 PM on Friday 24 Oct 2014 (Local Time) from KY50 Reporting Station
Overcast Overcast  
Wind Chill: 57°   Ceiling: 100
Heat Index: 57°   Visibility: 10mi
Dew Point: 52°   Wind: 6mph
Humidity: 84%   Direction: 190°S
Pressure: 29.9"   Gusts: NA
Location:  44.18°N, 89.25°W
Report Text: KY50 250056Z AUTO 19005KT 10SM OVC001 14/11 A2990 RMK AO2 TSNO T01380111 SLP124
Loading
Personal Weather Stations






























Interactive Weather Map
Tropical Storm Tracking
New forecast layout! Learn more

10-Day Weather Forecast

Advertisements
Track Severe Weather on mobile